Metaline Falls, WA

2:42 AM PDT on August 30, 2014 (GMT -0700)
RAWS DEER MOUNTAIN WA US | Change Station
CLOSE
Current Station
Personal Weather Station
Location: Ione, WA
Elevation: 3339 ft
Nearby Weather Stations

Elev 3339 ft 48.80 °N, 117.45 °W | Updated 46 minutes ago

Partly Cloudy
Partly Cloudy
54 °F
Feels Like 54 °F
N
0
Wind Variable Wind from North
Gusts 5.0 mph

Today
High -- | Low -- °F
--% Chance of Precip.
Yesterday
High -- | Low -- °F
Precip. -- in
6:03 AM 7:35 PM
Waxing Crescent, 20% visible
Pressure 29.82 in
Visibility 10.0 miles
Clouds Overcast 8000 ft
Dew Point 44 °F
Humidity 69%
Rainfall 0.00 in
Snow Depth Not available.
UV 0 out of 12
Pollen 7.30 out of 12
PM2.5 Good
Flu Activity Not available.
METAR K65S 300935Z AUTO 00000KT 10SM OVC080 14/12 A2982 RMK AO2

More Conditions Fewer Conditions

Pressure 29.82 in
Visibility 10.0 miles
Clouds Overcast 8000 ft
Dew Point 44 °F
Humidity 69%
Rainfall 0.00 in
Snow Depth Not available.
UV 0 out of 12
Pollen 7.30 out of 12
PM2.5 Good
Flu Activity Not available.
METAR K65S 300935Z AUTO 00000KT 10SM OVC080 14/12 A2982 RMK AO2

More Conditions Fewer Conditions

10-Day Weather Forecast

Almanac

Astronomy

Aug. 30, 2014 Rise Set
Actual Time 6:03 AM PDT 7:35 PM PDT
Civil Twilight 5:30 AM PDT 8:08 PM PDT
Nautical Twilight 4:50 AM PDT 8:48 PM PDT
Astronomical Twilight 4:06 AM PDT 9:31 PM PDT
Moon 11:23 AM PDT 9:43 PM PDT
Length of Visible Light 14h 37m
Length of Day
13h 31m
Tomorrow will be 3m 28s shorter.
Waxing Crescent, 20% of the Moon is Illuminated
Today
Waxing Crescent
Sep 2
First Quarter
Sep 8
Full
Sep 15
Last Quarter
Sep 24
New

Today's Extremes

State Highs State Lows

Community

WunderPhotos

Upload Photos

1,748,475 photos uploaded!

Nearby

Air Quality

  Air Quality AQ Index Pollutant
Yesterday Good
OZONE
Yesterday Good
PM10
Current Good
PM2.5
Saturday Good
PM10
Saturday Good
OZONE
Sunday Good
PM10
Sunday Good
OZONE
Monday Good
PM10
Monday Good
OZONE

Snow Depth

Station Depth Elevation
Bunchgrass Meadow 0 in 5000 ft
Sentinel Butte 0 in 4920 ft
Quartz Peak 1 in 4700 ft
Moses Mountain 1 in 5300 ft
Harts Pass 0 in 6500 ft

Earthquake Activity

City Distance Mag. Time & Date
No recent earthquake activity has been reported nearby.
Minimum magnitude displayed is 2.5.

Coastal Water Temperatures

Place Temperature
No Stations Reporting

Nearby Weather Stations